sensor_id;sensor_type;location;lat;lon;timestamp;pressure;altitude;pressure_sealevel;temperature;humidity
33280;BME280;20403;43.114;12.434;2023-02-12T00:00:49;100830.94;;;1.49;100.00
33280;BME280;20403;43.114;12.434;2023-02-12T00:03:17;100835.16;;;1.16;100.00
33280;BME280;20403;43.114;12.434;2023-02-12T00:05:42;100836.53;;;1.32;100.00
33280;BME280;20403;43.114;12.434;2023-02-12T00:08:08;100835.63;;;1.33;100.00
33280;BME280;20403;43.114;12.434;2023-02-12T00:10:39;100834.22;;;1.40;100.00
33280;BME280;20403;43.114;12.434;2023-02-12T00:13:04;100845.44;;;1.39;100.00
33280;BME280;20403;43.114;12.434;2023-02-12T00:15:30;100842.16;;;1.48;100.00
33280;BME280;20403;43.114;12.434;2023-02-12T00:17:55;100835.34;;;1.58;100.00
33280;BME280;20403;43.114;12.434;2023-02-12T00:20:20;100836.69;;;1.30;100.00
33280;BME280;20403;43.114;12.434;2023-02-12T00:22:46;100842.63;;;1.08;100.00
33280;BME280;20403;43.114;12.434;2023-02-12T00:25:11;100844.41;;;1.08;100.00
33280;BME280;20403;43.114;12.434;2023-02-12T00:27:38;100849.63;;;1.17;100.00
33280;BME280;20403;43.114;12.434;2023-02-12T00:30:03;100840.88;;;1.20;100.00
33280;BME280;20403;43.114;12.434;2023-02-12T00:32:29;100840.41;;;1.26;100.00
33280;BME280;20403;43.114;12.434;2023-02-12T00:34:54;100838.56;;;1.28;100.00
33280;BME280;20403;43.114;12.434;2023-02-12T00:37:20;100846.25;;;1.05;100.00
33280;BME280;20403;43.114;12.434;2023-02-12T00:39:45;100846.13;;;0.84;100.00
33280;BME280;20403;43.114;12.434;2023-02-12T00:42:10;100833.53;;;0.93;100.00
33280;BME280;20403;43.114;12.434;2023-02-12T00:44:36;100840.53;;;0.91;100.00
33280;BME280;20403;43.114;12.434;2023-02-12T00:47:02;100837.75;;;1.05;100.00
33280;BME280;20403;43.114;12.434;2023-02-12T00:49:29;100844.16;;;1.22;100.00
33280;BME280;20403;43.114;12.434;2023-02-12T00:52:01;100838.78;;;1.02;100.00
33280;BME280;20403;43.114;12.434;2023-02-12T00:54:27;100833.19;;;0.97;100.00
33280;BME280;20403;43.114;12.434;2023-02-12T00:56:53;100837.97;;;0.79;100.00
33280;BME280;20403;43.114;12.434;2023-02-12T00:59:20;100832.25;;;0.98;100.00
33280;BME280;20403;43.114;12.434;2023-02-12T01:01:46;100831.53;;;0.96;100.00
33280;BME280;20403;43.114;12.434;2023-02-12T01:04:11;100827.69;;;0.91;100.00
33280;BME280;20403;43.114;12.434;2023-02-12T01:06:37;100832.38;;;0.86;100.00
33280;BME280;20403;43.114;12.434;2023-02-12T01:09:02;100836.47;;;0.99;100.00
33280;BME280;20403;43.114;12.434;2023-02-12T01:11:28;100834.25;;;0.95;100.00
33280;BME280;20403;43.114;12.434;2023-02-12T01:13:53;100831.44;;;0.98;100.00
33280;BME280;20403;43.114;12.434;2023-02-12T01:16:21;100829.66;;;0.87;100.00
33280;BME280;20403;43.114;12.434;2023-02-12T01:18:47;100838.91;;;1.12;100.00
33280;BME280;20403;43.114;12.434;2023-02-12T01:21:25;100831.56;;;1.19;100.00
33280;BME280;20403;43.114;12.434;2023-02-12T01:23:51;100845.34;;;0.95;100.00
33280;BME280;20403;43.114;12.434;2023-02-12T01:26:18;100839.84;;;1.00;100.00
33280;BME280;20403;43.114;12.434;2023-02-12T01:28:47;100836.59;;;1.09;100.00
33280;BME280;20403;43.114;12.434;2023-02-12T01:31:15;100823.84;;;1.08;100.00
33280;BME280;20403;43.114;12.434;2023-02-12T01:33:42;100832.69;;;0.92;100.00
33280;BME280;20403;43.114;12.434;2023-02-12T01:36:08;100834.25;;;0.95;100.00
33280;BME280;20403;43.114;12.434;2023-02-12T01:38:34;100828.97;;;0.96;100.00
33280;BME280;20403;43.114;12.434;2023-02-12T01:41:08;100827.44;;;0.71;100.00
33280;BME280;20403;43.114;12.434;2023-02-12T01:43:35;100822.09;;;0.74;100.00
33280;BME280;20403;43.114;12.434;2023-02-12T01:46:01;100822.66;;;0.89;100.00
33280;BME280;20403;43.114;12.434;2023-02-12T01:48:30;100823.03;;;0.84;100.00
33280;BME280;20403;43.114;12.434;2023-02-12T01:50:57;100814.72;;;0.92;100.00
33280;BME280;20403;43.114;12.434;2023-02-12T01:53:27;100813.53;;;0.74;100.00
33280;BME280;20403;43.114;12.434;2023-02-12T01:55:57;100812.28;;;0.79;100.00
33280;BME280;20403;43.114;12.434;2023-02-12T01:58:24;100824.63;;;0.52;100.00
33280;BME280;20403;43.114;12.434;2023-02-12T02:00:51;100822.66;;;0.78;100.00
33280;BME280;20403;43.114;12.434;2023-02-12T02:03:17;100817.66;;;0.76;100.00
33280;BME280;20403;43.114;12.434;2023-02-12T02:05:54;100814.81;;;0.57;100.00
33280;BME280;20403;43.114;12.434;2023-02-12T02:08:21;100809.59;;;0.58;100.00
33280;BME280;20403;43.114;12.434;2023-02-12T02:10:47;100814.97;;;0.78;100.00
33280;BME280;20403;43.114;12.434;2023-02-12T02:13:12;100810.84;;;0.64;100.00
33280;BME280;20403;43.114;12.434;2023-02-12T02:16:00;100810.31;;;0.72;100.00
33280;BME280;20403;43.114;12.434;2023-02-12T02:18:40;100805.97;;;0.72;100.00
33280;BME280;20403;43.114;12.434;2023-02-12T02:26:55;100799.44;;;0.68;100.00
33280;BME280;20403;43.114;12.434;2023-02-12T02:32:23;100784.25;;;0.43;100.00
33280;BME280;20403;43.114;12.434;2023-02-12T02:35:42;100775.38;;;0.47;100.00
33280;BME280;20403;43.114;12.434;2023-02-12T02:37:54;100779.94;;;0.66;100.00
33280;BME280;20403;43.114;12.434;2023-02-12T02:40:28;100778.19;;;0.55;100.00
33280;BME280;20403;43.114;12.434;2023-02-12T02:45:33;100771.31;;;0.67;100.00
33280;BME280;20403;43.114;12.434;2023-02-12T02:48:20;100767.47;;;0.61;100.00
33280;BME280;20403;43.114;12.434;2023-02-12T02:50:52;100768.72;;;0.55;100.00
33280;BME280;20403;43.114;12.434;2023-02-12T02:53:35;100769.69;;;0.66;100.00
33280;BME280;20403;43.114;12.434;2023-02-12T02:56:06;100773.88;;;0.78;100.00
33280;BME280;20403;43.114;12.434;2023-02-12T02:58:38;100777.16;;;0.80;100.00
33280;BME280;20403;43.114;12.434;2023-02-12T03:01:09;100774.19;;;0.51;100.00
33280;BME280;20403;43.114;12.434;2023-02-12T03:03:44;100767.34;;;0.62;100.00
33280;BME280;20403;43.114;12.434;2023-02-12T03:06:28;100761.97;;;0.54;100.00
33280;BME280;20403;43.114;12.434;2023-02-12T03:09:03;100766.84;;;0.46;100.00
33280;BME280;20403;43.114;12.434;2023-02-12T03:11:32;100768.56;;;0.23;100.00
33280;BME280;20403;43.114;12.434;2023-02-12T03:14:02;100772.44;;;0.29;100.00
33280;BME280;20403;43.114;12.434;2023-02-12T03:16:32;100769.16;;;0.27;100.00
33280;BME280;20403;43.114;12.434;2023-02-12T03:19:14;100767.53;;;0.26;100.00
33280;BME280;20403;43.114;12.434;2023-02-12T03:24:17;100767.38;;;0.16;100.00
33280;BME280;20403;43.114;12.434;2023-02-12T03:26:51;100772.06;;;0.22;100.00
33280;BME280;20403;43.114;12.434;2023-02-12T03:29:18;100779.28;;;0.17;100.00
33280;BME280;20403;43.114;12.434;2023-02-12T03:31:53;100774.91;;;0.30;100.00
33280;BME280;20403;43.114;12.434;2023-02-12T03:37:36;100766.34;;;0.30;100.00
33280;BME280;20403;43.114;12.434;2023-02-12T03:40:28;100766.00;;;0.34;100.00
33280;BME280;20403;43.114;12.434;2023-02-12T03:43:08;100767.75;;;0.23;100.00
33280;BME280;20403;43.114;12.434;2023-02-12T03:45:56;100764.59;;;0.19;100.00
33280;BME280;20403;43.114;12.434;2023-02-12T03:51:02;100763.94;;;-0.07;100.00
33280;BME280;20403;43.114;12.434;2023-02-12T03:53:28;100780.63;;;-0.02;100.00
33280;BME280;20403;43.114;12.434;2023-02-12T03:56:04;100774.56;;;-0.01;100.00
33280;BME280;20403;43.114;12.434;2023-02-12T03:58:33;100773.31;;;0.05;100.00
33280;BME280;20403;43.114;12.434;2023-02-12T04:01:00;100772.03;;;0.11;100.00
33280;BME280;20403;43.114;12.434;2023-02-12T04:03:26;100764.69;;;0.06;100.00
33280;BME280;20403;43.114;12.434;2023-02-12T04:05:52;100779.50;;;0.14;100.00
33280;BME280;20403;43.114;12.434;2023-02-12T04:08:17;100773.34;;;0.16;100.00
33280;BME280;20403;43.114;12.434;2023-02-12T04:11:05;100772.31;;;0.19;100.00
33280;BME280;20403;43.114;12.434;2023-02-12T04:16:37;100779.16;;;0.18;100.00
33280;BME280;20403;43.114;12.434;2023-02-12T04:19:06;100769.91;;;0.05;100.00
33280;BME280;20403;43.114;12.434;2023-02-12T04:27:28;100763.72;;;-0.28;100.00
33280;BME280;20403;43.114;12.434;2023-02-12T04:32:46;100756.38;;;-0.33;100.00
33280;BME280;20403;43.114;12.434;2023-02-12T04:35:21;100758.78;;;-0.43;100.00
33280;BME280;20403;43.114;12.434;2023-02-12T04:38:13;100761.88;;;-0.26;100.00
33280;BME280;20403;43.114;12.434;2023-02-12T04:40:42;100763.44;;;-0.12;100.00
33280;BME280;20403;43.114;12.434;2023-02-12T04:43:08;100761.13;;;-0.15;100.00
33280;BME280;20403;43.114;12.434;2023-02-12T04:45:35;100749.50;;;-0.08;100.00
33280;BME280;20403;43.114;12.434;2023-02-12T04:48:01;100745.97;;;-0.07;100.00
33280;BME280;20403;43.114;12.434;2023-02-12T04:50:37;100743.88;;;-0.13;100.00
33280;BME280;20403;43.114;12.434;2023-02-12T04:53:03;100747.59;;;-0.17;100.00
33280;BME280;20403;43.114;12.434;2023-02-12T04:55:29;100747.31;;;-0.26;100.00
33280;BME280;20403;43.114;12.434;2023-02-12T04:57:54;100743.97;;;-0.50;100.00
33280;BME280;20403;43.114;12.434;2023-02-12T05:00:20;100738.75;;;-0.37;100.00
33280;BME280;20403;43.114;12.434;2023-02-12T05:02:45;100739.63;;;-0.26;100.00
33280;BME280;20403;43.114;12.434;2023-02-12T05:05:11;100740.91;;;-0.31;100.00
33280;BME280;20403;43.114;12.434;2023-02-12T05:07:36;100743.63;;;-0.46;100.00
33280;BME280;20403;43.114;12.434;2023-02-12T05:10:02;100739.72;;;-0.38;100.00
33280;BME280;20403;43.114;12.434;2023-02-12T05:12:27;100742.94;;;-0.48;100.00
33280;BME280;20403;43.114;12.434;2023-02-12T05:14:53;100751.69;;;-0.63;100.00
33280;BME280;20403;43.114;12.434;2023-02-12T05:17:21;100746.91;;;-0.44;100.00
33280;BME280;20403;43.114;12.434;2023-02-12T05:19:47;100741.59;;;-0.53;100.00
33280;BME280;20403;43.114;12.434;2023-02-12T05:22:12;100751.00;;;-0.41;100.00
33280;BME280;20403;43.114;12.434;2023-02-12T05:24:37;100753.56;;;-0.41;100.00
33280;BME280;20403;43.114;12.434;2023-02-12T05:27:03;100754.94;;;-0.48;100.00
33280;BME280;20403;43.114;12.434;2023-02-12T05:29:28;100753.94;;;-0.58;100.00
33280;BME280;20403;43.114;12.434;2023-02-12T05:31:54;100749.81;;;-0.48;100.00
33280;BME280;20403;43.114;12.434;2023-02-12T05:34:19;100753.06;;;-0.46;100.00
33280;BME280;20403;43.114;12.434;2023-02-12T05:36:44;100753.66;;;-0.43;100.00
33280;BME280;20403;43.114;12.434;2023-02-12T05:39:10;100750.50;;;-0.46;100.00
33280;BME280;20403;43.114;12.434;2023-02-12T05:41:35;100746.91;;;-0.44;100.00
33280;BME280;20403;43.114;12.434;2023-02-12T05:44:04;100743.47;;;-0.55;100.00
33280;BME280;20403;43.114;12.434;2023-02-12T05:46:30;100746.38;;;-0.60;100.00
33280;BME280;20403;43.114;12.434;2023-02-12T05:48:56;100758.25;;;-0.59;100.00
33280;BME280;20403;43.114;12.434;2023-02-12T05:51:24;100753.81;;;-0.57;100.00
33280;BME280;20403;43.114;12.434;2023-02-12T05:53:52;100750.88;;;-0.64;100.00
33280;BME280;20403;43.114;12.434;2023-02-12T05:56:22;100758.78;;;-0.67;100.00
33280;BME280;20403;43.114;12.434;2023-02-12T05:59:00;100754.97;;;-0.37;100.00
33280;BME280;20403;43.114;12.434;2023-02-12T06:01:38;100755.03;;;-0.50;100.00
33280;BME280;20403;43.114;12.434;2023-02-12T06:04:06;100759.59;;;-0.42;100.00
33280;BME280;20403;43.114;12.434;2023-02-12T06:06:33;100767.34;;;-0.55;100.00
33280;BME280;20403;43.114;12.434;2023-02-12T06:08:59;100771.72;;;-0.81;100.00
33280;BME280;20403;43.114;12.434;2023-02-12T06:11:24;100769.94;;;-0.68;100.00
33280;BME280;20403;43.114;12.434;2023-02-12T06:13:50;100772.47;;;-0.55;100.00
33280;BME280;20403;43.114;12.434;2023-02-12T06:16:24;100772.31;;;-0.65;100.00
33280;BME280;20403;43.114;12.434;2023-02-12T06:18:51;100770.66;;;-0.66;100.00
33280;BME280;20403;43.114;12.434;2023-02-12T06:21:18;100767.38;;;-0.68;100.00
33280;BME280;20403;43.114;12.434;2023-02-12T06:23:44;100764.63;;;-0.65;100.00
33280;BME280;20403;43.114;12.434;2023-02-12T06:26:09;100765.75;;;-0.69;100.00
33280;BME280;20403;43.114;12.434;2023-02-12T06:28:35;100770.09;;;-0.95;100.00
33280;BME280;20403;43.114;12.434;2023-02-12T06:31:00;100776.06;;;-0.94;100.00
33280;BME280;20403;43.114;12.434;2023-02-12T06:33:26;100774.19;;;-0.79;100.00
33280;BME280;20403;43.114;12.434;2023-02-12T06:35:51;100772.47;;;-0.55;100.00
33280;BME280;20403;43.114;12.434;2023-02-12T06:38:17;100773.69;;;-0.60;100.00
33280;BME280;20403;43.114;12.434;2023-02-12T06:40:42;100782.06;;;-0.46;100.00
33280;BME280;20403;43.114;12.434;2023-02-12T06:43:08;100780.16;;;-0.55;100.00
33280;BME280;20403;43.114;12.434;2023-02-12T06:45:33;100773.78;;;-0.49;100.00
33280;BME280;20403;43.114;12.434;2023-02-12T06:47:59;100772.56;;;-0.56;100.00
33280;BME280;20403;43.114;12.434;2023-02-12T06:50:25;100770.63;;;-0.29;100.00
33280;BME280;20403;43.114;12.434;2023-02-12T06:52:50;100764.53;;;-0.39;100.00
33280;BME280;20403;43.114;12.434;2023-02-12T06:55:16;100768.81;;;-0.39;100.00
33280;BME280;20403;43.114;12.434;2023-02-12T06:57:42;100791.19;;;-0.41;100.00
33280;BME280;20403;43.114;12.434;2023-02-12T07:00:08;100807.25;;;-0.15;100.00
33280;BME280;20403;43.114;12.434;2023-02-12T07:02:34;100818.28;;;-0.02;100.00
33280;BME280;20403;43.114;12.434;2023-02-12T07:04:59;100831.63;;;0.14;100.00
33280;BME280;20403;43.114;12.434;2023-02-12T07:07:25;100830.69;;;0.15;100.00
33280;BME280;20403;43.114;12.434;2023-02-12T07:09:50;100830.50;;;0.30;100.00
33280;BME280;20403;43.114;12.434;2023-02-12T07:12:15;100829.97;;;0.60;100.00
33280;BME280;20403;43.114;12.434;2023-02-12T07:14:41;100828.75;;;0.88;100.00
33280;BME280;20403;43.114;12.434;2023-02-12T07:17:07;100813.56;;;0.85;100.00
33280;BME280;20403;43.114;12.434;2023-02-12T07:19:34;100802.84;;;0.91;100.00
33280;BME280;20403;43.114;12.434;2023-02-12T07:21:59;100791.16;;;0.87;100.00
33280;BME280;20403;43.114;12.434;2023-02-12T07:24:24;100773.97;;;1.10;100.00
33280;BME280;20403;43.114;12.434;2023-02-12T07:26:50;100774.22;;;1.18;100.00
33280;BME280;20403;43.114;12.434;2023-02-12T07:29:15;100769.72;;;1.32;100.00
33280;BME280;20403;43.114;12.434;2023-02-12T07:31:41;100775.97;;;1.61;100.00
33280;BME280;20403;43.114;12.434;2023-02-12T07:34:06;100795.91;;;2.34;100.00
33280;BME280;20403;43.114;12.434;2023-02-12T07:36:32;100802.50;;;3.19;100.00
33280;BME280;20403;43.114;12.434;2023-02-12T07:38:58;100805.47;;;3.93;100.00
33280;BME280;20403;43.114;12.434;2023-02-12T07:41:30;100803.88;;;4.59;100.00
33280;BME280;20403;43.114;12.434;2023-02-12T07:44:01;100800.47;;;4.96;91.61
33280;BME280;20403;43.114;12.434;2023-02-12T07:46:36;100805.66;;;4.96;86.21
33280;BME280;20403;43.114;12.434;2023-02-12T07:49:04;100802.75;;;5.09;84.95
33280;BME280;20403;43.114;12.434;2023-02-12T07:51:31;100811.06;;;5.02;90.01
33280;BME280;20403;43.114;12.434;2023-02-12T07:53:57;100808.06;;;5.07;89.01
33280;BME280;20403;43.114;12.434;2023-02-12T07:56:27;100810.22;;;5.12;87.08
33280;BME280;20403;43.114;12.434;2023-02-12T07:58:58;100817.97;;;5.12;89.69
33280;BME280;20403;43.114;12.434;2023-02-12T08:01:29;100826.81;;;5.09;93.84
33280;BME280;20403;43.114;12.434;2023-02-12T08:03:59;100820.03;;;4.71;90.56
33280;BME280;20403;43.114;12.434;2023-02-12T08:06:27;100810.44;;;4.34;86.90
33280;BME280;20403;43.114;12.434;2023-02-12T08:08:55;100799.50;;;4.69;92.51
33280;BME280;20403;43.114;12.434;2023-02-12T08:11:21;100807.06;;;4.80;93.59
33280;BME280;20403;43.114;12.434;2023-02-12T08:13:47;100810.72;;;4.88;89.75
33280;BME280;20403;43.114;12.434;2023-02-12T08:16:20;100806.31;;;4.98;92.70
33280;BME280;20403;43.114;12.434;2023-02-12T08:18:46;100798.47;;;5.17;93.88
33280;BME280;20403;43.114;12.434;2023-02-12T08:21:15;100803.56;;;5.37;88.32
33280;BME280;20403;43.114;12.434;2023-02-12T08:23:40;100797.72;;;5.53;89.44
33280;BME280;20403;43.114;12.434;2023-02-12T08:28:44;100792.94;;;5.76;84.91
33280;BME280;20403;43.114;12.434;2023-02-12T08:31:15;100802.16;;;5.60;82.13
33280;BME280;20403;43.114;12.434;2023-02-12T08:33:43;100811.41;;;5.81;78.45
33280;BME280;20403;43.114;12.434;2023-02-12T08:36:10;100815.56;;;5.92;76.17
33280;BME280;20403;43.114;12.434;2023-02-12T08:38:37;100805.03;;;5.75;72.67
33280;BME280;20403;43.114;12.434;2023-02-12T08:41:08;100801.72;;;5.19;70.95
33280;BME280;20403;43.114;12.434;2023-02-12T08:43:34;100799.22;;;5.55;81.31
33280;BME280;20403;43.114;12.434;2023-02-12T08:46:03;100798.16;;;5.66;83.57
33280;BME280;20403;43.114;12.434;2023-02-12T08:48:30;100794.94;;;5.64;72.06
33280;BME280;20403;43.114;12.434;2023-02-12T08:50:56;100789.75;;;5.82;72.44
33280;BME280;20403;43.114;12.434;2023-02-12T08:53:21;100789.81;;;5.90;73.92
33280;BME280;20403;43.114;12.434;2023-02-12T08:55:48;100785.91;;;6.48;79.05
33280;BME280;20403;43.114;12.434;2023-02-12T08:58:13;100773.53;;;6.68;67.57
33280;BME280;20403;43.114;12.434;2023-02-12T09:00:39;100781.81;;;6.71;66.63
33280;BME280;20403;43.114;12.434;2023-02-12T09:03:04;100788.84;;;6.87;67.93
33280;BME280;20403;43.114;12.434;2023-02-12T09:05:30;100788.91;;;7.63;67.29
33280;BME280;20403;43.114;12.434;2023-02-12T09:07:55;100789.41;;;7.99;64.25
33280;BME280;20403;43.114;12.434;2023-02-12T09:10:20;100786.81;;;7.58;60.72
33280;BME280;20403;43.114;12.434;2023-02-12T09:12:46;100779.66;;;8.17;60.94
33280;BME280;20403;43.114;12.434;2023-02-12T09:15:12;100777.31;;;8.72;58.49
33280;BME280;20403;43.114;12.434;2023-02-12T09:17:38;100767.84;;;9.10;55.76
33280;BME280;20403;43.114;12.434;2023-02-12T09:20:05;100767.56;;;9.36;55.43
33280;BME280;20403;43.114;12.434;2023-02-12T09:22:31;100766.69;;;9.44;54.58
33280;BME280;20403;43.114;12.434;2023-02-12T09:24:56;100772.06;;;9.65;53.81
33280;BME280;20403;43.114;12.434;2023-02-12T09:27:22;100768.16;;;9.46;51.84
33280;BME280;20403;43.114;12.434;2023-02-12T09:29:47;100776.38;;;8.96;52.27
33280;BME280;20403;43.114;12.434;2023-02-12T09:32:13;100764.06;;;8.90;53.45
33280;BME280;20403;43.114;12.434;2023-02-12T09:34:38;100761.47;;;9.52;53.92
33280;BME280;20403;43.114;12.434;2023-02-12T09:37:03;100777.13;;;9.90;52.33
33280;BME280;20403;43.114;12.434;2023-02-12T09:39:29;100786.16;;;10.40;51.39
33280;BME280;20403;43.114;12.434;2023-02-12T09:45:21;100787.78;;;10.18;52.12
33280;BME280;20403;43.114;12.434;2023-02-12T09:50:26;100790.09;;;10.51;52.85
33280;BME280;20403;43.114;12.434;2023-02-12T09:52:54;100788.53;;;11.01;51.19
33280;BME280;20403;43.114;12.434;2023-02-12T09:55:26;100787.50;;;10.96;49.37
33280;BME280;20403;43.114;12.434;2023-02-12T09:57:53;100792.44;;;10.46;48.19
33280;BME280;20403;43.114;12.434;2023-02-12T10:00:24;100790.19;;;9.59;49.58
33280;BME280;20403;43.114;12.434;2023-02-12T10:02:53;100794.56;;;9.89;50.15
33280;BME280;20403;43.114;12.434;2023-02-12T10:13:37;100767.16;;;11.27;48.72
33280;BME280;20403;43.114;12.434;2023-02-12T10:19:33;100759.00;;;10.49;48.43
33280;BME280;20403;43.114;12.434;2023-02-12T10:22:13;100761.97;;;10.61;48.79
33280;BME280;20403;43.114;12.434;2023-02-12T10:25:05;100756.72;;;10.76;48.49
33280;BME280;20403;43.114;12.434;2023-02-12T10:27:45;100758.34;;;11.28;47.81
33280;BME280;20403;43.114;12.434;2023-02-12T10:30:22;100747.22;;;11.63;49.03
33280;BME280;20403;43.114;12.434;2023-02-12T10:32:51;100752.94;;;11.51;48.33
33280;BME280;20403;43.114;12.434;2023-02-12T10:35:20;100753.19;;;10.99;47.68
33280;BME280;20403;43.114;12.434;2023-02-12T10:38:03;100760.22;;;10.54;48.78
33280;BME280;20403;43.114;12.434;2023-02-12T10:40:31;100751.16;;;10.64;48.61
33280;BME280;20403;43.114;12.434;2023-02-12T10:42:59;100746.53;;;10.81;49.11
33280;BME280;20403;43.114;12.434;2023-02-12T10:45:30;100747.75;;;11.36;48.58
33280;BME280;20403;43.114;12.434;2023-02-12T10:48:30;100748.06;;;11.91;47.62
33280;BME280;20403;43.114;12.434;2023-02-12T10:53:38;100743.66;;;11.92;46.13
33280;BME280;20403;43.114;12.434;2023-02-12T10:58:35;100733.09;;;11.85;46.24
33280;BME280;20403;43.114;12.434;2023-02-12T11:01:01;100735.84;;;12.27;47.15
33280;BME280;20403;43.114;12.434;2023-02-12T11:03:32;100724.38;;;12.63;46.02
33280;BME280;20403;43.114;12.434;2023-02-12T11:06:12;100713.19;;;12.89;45.53
33280;BME280;20403;43.114;12.434;2023-02-12T11:08:37;100703.75;;;12.46;44.84
33280;BME280;20403;43.114;12.434;2023-02-12T11:11:15;100705.31;;;12.34;45.00
33280;BME280;20403;43.114;12.434;2023-02-12T11:13:46;100702.19;;;12.17;45.39
33280;BME280;20403;43.114;12.434;2023-02-12T11:16:32;100699.66;;;11.95;45.17
33280;BME280;20403;43.114;12.434;2023-02-12T11:19:05;100688.03;;;12.05;46.00
33280;BME280;20403;43.114;12.434;2023-02-12T11:21:33;100678.91;;;11.94;46.21
33280;BME280;20403;43.114;12.434;2023-02-12T11:24:25;100680.53;;;11.95;47.26
33280;BME280;20403;43.114;12.434;2023-02-12T11:27:23;100678.34;;;11.98;47.54
33280;BME280;20403;43.114;12.434;2023-02-12T11:30:28;100669.53;;;11.78;46.72
33280;BME280;20403;43.114;12.434;2023-02-12T11:32:53;100660.09;;;11.77;48.96
33280;BME280;20403;43.114;12.434;2023-02-12T11:35:23;100666.72;;;11.80;49.15
33280;BME280;20403;43.114;12.434;2023-02-12T11:37:54;100663.09;;;11.74;47.93
33280;BME280;20403;43.114;12.434;2023-02-12T11:40:31;100657.88;;;11.74;49.13
33280;BME280;20403;43.114;12.434;2023-02-12T11:43:05;100658.94;;;11.58;48.09
33280;BME280;20403;43.114;12.434;2023-02-12T11:45:43;100650.25;;;11.51;47.66
33280;BME280;20403;43.114;12.434;2023-02-12T11:48:28;100660.06;;;11.49;48.63
33280;BME280;20403;43.114;12.434;2023-02-12T11:50:57;100663.31;;;11.51;49.77
33280;BME280;20403;43.114;12.434;2023-02-12T11:53:28;100657.66;;;11.47;50.26
33280;BME280;20403;43.114;12.434;2023-02-12T11:56:02;100657.16;;;11.37;49.19
33280;BME280;20403;43.114;12.434;2023-02-12T11:58:29;100649.63;;;11.27;47.21
33280;BME280;20403;43.114;12.434;2023-02-12T12:01:03;100648.66;;;11.28;48.44
33280;BME280;20403;43.114;12.434;2023-02-12T12:03:37;100640.06;;;11.34;49.49
33280;BME280;20403;43.114;12.434;2023-02-12T12:08:55;100628.69;;;11.42;48.10
33280;BME280;20403;43.114;12.434;2023-02-12T12:11:40;100628.44;;;11.37;48.74
33280;BME280;20403;43.114;12.434;2023-02-12T12:16:38;100611.63;;;11.46;48.24
33280;BME280;20403;43.114;12.434;2023-02-12T12:19:33;100619.03;;;11.43;47.89
33280;BME280;20403;43.114;12.434;2023-02-12T12:22:49;100613.88;;;11.49;48.31
33280;BME280;20403;43.114;12.434;2023-02-12T12:25:35;100613.53;;;11.59;47.71
33280;BME280;20403;43.114;12.434;2023-02-12T12:28:16;100612.56;;;11.67;48.20
33280;BME280;20403;43.114;12.434;2023-02-12T12:30:49;100609.00;;;11.74;48.13
33280;BME280;20403;43.114;12.434;2023-02-12T12:33:42;100614.84;;;11.76;47.90
33280;BME280;20403;43.114;12.434;2023-02-12T12:42:13;100607.53;;;11.93;46.93
33280;BME280;20403;43.114;12.434;2023-02-12T12:53:34;100593.53;;;12.08;45.94
33280;BME280;20403;43.114;12.434;2023-02-12T13:06:44;100583.75;;;12.23;45.82
33280;BME280;20403;43.114;12.434;2023-02-12T13:17:15;100576.91;;;12.29;45.36
33280;BME280;20403;43.114;12.434;2023-02-12T13:19:58;100575.94;;;12.36;46.16
33280;BME280;20403;43.114;12.434;2023-02-12T13:27:47;100563.03;;;12.28;45.60
33280;BME280;20403;43.114;12.434;2023-02-12T13:32:42;100580.56;;;12.34;45.90
33280;BME280;20403;43.114;12.434;2023-02-12T13:35:13;100573.53;;;12.42;46.24
33280;BME280;20403;43.114;12.434;2023-02-12T13:37:42;100565.69;;;12.42;46.25
33280;BME280;20403;43.114;12.434;2023-02-12T13:40:24;100564.28;;;12.39;45.02
33280;BME280;20403;43.114;12.434;2023-02-12T13:51:45;100545.53;;;12.35;47.13
33280;BME280;20403;43.114;12.434;2023-02-12T13:56:47;100545.16;;;12.38;47.22
33280;BME280;20403;43.114;12.434;2023-02-12T14:01:58;100542.16;;;12.48;47.87
33280;BME280;20403;43.114;12.434;2023-02-12T14:04:32;100550.63;;;12.50;48.46
33280;BME280;20403;43.114;12.434;2023-02-12T14:10:00;100546.22;;;12.71;45.08
33280;BME280;20403;43.114;12.434;2023-02-12T14:12:30;100544.00;;;12.74;44.05
33280;BME280;20403;43.114;12.434;2023-02-12T14:15:18;100544.03;;;12.88;43.81
33280;BME280;20403;43.114;12.434;2023-02-12T14:18:04;100549.47;;;12.93;43.68
33280;BME280;20403;43.114;12.434;2023-02-12T14:20:32;100554.69;;;12.86;45.19
33280;BME280;20403;43.114;12.434;2023-02-12T14:23:21;100552.06;;;12.86;45.07
33280;BME280;20403;43.114;12.434;2023-02-12T14:28:55;100546.41;;;12.89;48.07
33280;BME280;20403;43.114;12.434;2023-02-12T14:31:28;100547.84;;;13.05;49.83
33280;BME280;20403;43.114;12.434;2023-02-12T14:36:40;100547.47;;;13.15;43.92
33280;BME280;20403;43.114;12.434;2023-02-12T14:39:28;100550.69;;;13.30;44.75
33280;BME280;20403;43.114;12.434;2023-02-12T14:44:46;100553.91;;;13.32;46.59
33280;BME280;20403;43.114;12.434;2023-02-12T14:47:15;100553.50;;;13.15;43.49
33280;BME280;20403;43.114;12.434;2023-02-12T14:50:21;100560.94;;;13.12;42.05
33280;BME280;20403;43.114;12.434;2023-02-12T14:52:52;100559.31;;;13.51;40.44
33280;BME280;20403;43.114;12.434;2023-02-12T14:55:22;100552.91;;;13.33;37.36
33280;BME280;20403;43.114;12.434;2023-02-12T14:57:49;100553.31;;;13.30;35.47
33280;BME280;20403;43.114;12.434;2023-02-12T15:02:41;100557.72;;;13.03;35.39
33280;BME280;20403;43.114;12.434;2023-02-12T15:05:27;100562.34;;;12.88;34.63
33280;BME280;20403;43.114;12.434;2023-02-12T15:08:04;100561.13;;;12.77;33.58